Time;durP1;ratioP1;P1;durP2;ratioP2;P2;SDS_P1;SDS_P2;PMS_P1;PMS_P2;Temp;Humidity;BMP_temperature;BMP_pressure;BME280_temperature;BME280_humidity;BME280_pressure;Samples;Min_cycle;Max_cycle;Signal;HPM_P1;HPM_P2
2021/05/11 00:00:05;;;;;;;3.20;2.33;;;;;;;13.09;49.67;100923.81;5006592;28;20033;-69
2021/05/11 00:02:30;;;;;;;4.20;2.40;;;;;;;13.18;49.33;100919.88;5007038;28;20049;-69
2021/05/11 00:04:56;;;;;;;3.20;2.30;;;;;;;13.19;49.14;100919.81;5008407;28;20034;-69
2021/05/11 00:07:21;;;;;;;3.60;2.03;;;;;;;13.05;49.57;100912.63;5008253;28;20038;-69
2021/05/11 00:09:47;;;;;;;5.15;2.50;;;;;;;12.94;49.95;100916.69;5006332;28;20211;-69
2021/05/11 00:12:12;;;;;;;3.90;1.95;;;;;;;13.20;49.48;100923.28;5007963;28;20524;-69
2021/05/11 00:14:38;;;;;;;8.07;2.55;;;;;;;13.11;49.62;100916.69;5007305;28;20399;-69
2021/05/11 00:17:03;;;;;;;3.88;1.80;;;;;;;12.98;50.09;100926.09;5006296;28;20034;-69
2021/05/11 00:19:29;;;;;;;2.88;1.92;;;;;;;13.13;49.29;100929.75;5006853;28;20800;-69
2021/05/11 00:21:55;;;;;;;4.97;2.38;;;;;;;13.16;49.54;100945.34;5008360;28;20030;-69
2021/05/11 00:24:20;;;;;;;5.60;2.65;;;;;;;12.99;49.81;100936.53;5006392;28;20041;-69
2021/05/11 00:26:46;;;;;;;7.82;2.75;;;;;;;13.03;49.80;100924.97;5005896;28;20113;-69
2021/05/11 00:29:11;;;;;;;4.47;2.42;;;;;;;13.19;49.83;100927.69;5007785;28;20042;-69
2021/05/11 00:31:37;;;;;;;2.75;2.35;;;;;;;13.02;50.03;100928.50;5004868;28;20389;-69
2021/05/11 00:34:03;;;;;;;4.85;2.17;;;;;;;13.22;49.52;100932.75;5007525;28;20185;-69
2021/05/11 00:36:28;;;;;;;3.67;2.53;;;;;;;13.30;49.49;100932.38;5005200;28;20029;-69
2021/05/11 00:38:54;;;;;;;5.78;2.30;;;;;;;13.25;49.58;100930.00;5006107;28;20092;-69
2021/05/11 00:41:19;;;;;;;4.97;2.30;;;;;;;13.02;50.49;100938.16;5022700;28;20072;-69
2021/05/11 00:43:46;;;;;;;3.42;2.03;;;;;;;13.09;50.48;100937.78;5006905;28;20195;-69
2021/05/11 00:46:13;;;;;;;3.85;2.95;;;;;;;13.00;50.65;100940.84;4989838;28;20017;-69
2021/05/11 00:48:39;;;;;;;7.57;2.67;;;;;;;12.88;51.09;100942.31;5005694;28;20030;-69
2021/05/11 00:51:06;;;;;;;3.63;2.00;;;;;;;12.91;51.03;100936.06;5006925;28;20452;-70
2021/05/11 00:53:33;;;;;;;5.10;2.45;;;;;;;12.79;51.76;100936.66;5006486;28;20026;-69
2021/05/11 00:56:00;;;;;;;3.47;2.10;;;;;;;12.84;51.38;100935.50;5007243;28;20216;-69
2021/05/11 00:58:25;;;;;;;3.55;2.13;;;;;;;12.93;51.37;100926.34;5007675;28;20056;-69
2021/05/11 01:00:51;;;;;;;6.82;3.88;;;;;;;13.05;51.37;100924.91;5005469;28;20400;-69
2021/05/11 01:03:17;;;;;;;3.47;2.08;;;;;;;12.84;51.50;100918.94;5021389;28;20029;-69
2021/05/11 01:05:42;;;;;;;4.28;2.20;;;;;;;12.93;51.53;100917.63;5006132;28;20083;-69
2021/05/11 01:08:10;;;;;;;4.25;2.70;;;;;;;12.97;51.50;100911.31;5007106;28;20045;-69
2021/05/11 01:10:36;;;;;;;6.68;2.95;;;;;;;12.84;52.06;100911.91;5020429;28;20125;-69
2021/05/11 01:13:02;;;;;;;2.80;2.50;;;;;;;12.83;51.89;100907.59;5005863;28;20085;-70
2021/05/11 01:15:28;;;;;;;4.00;3.13;;;;;;;12.49;53.03;100903.94;5010975;28;20064;-69
2021/05/11 01:18:01;;;;;;;4.60;3.22;;;;;;;12.79;52.18;100900.78;5021763;28;20031;-69
2021/05/11 01:20:33;;;;;;;5.05;3.65;;;;;;;12.81;52.48;100898.94;5007498;28;20037;-69
2021/05/11 01:25:45;;;;;;;3.78;3.05;;;;;;;12.75;52.81;100899.22;5020761;28;20479;-69
2021/05/11 01:44:01;;;;;;;5.40;4.45;;;;;;;12.53;53.70;100925.59;5006447;28;20034;-69
2021/05/11 02:23:36;;;;;;;8.68;6.68;;;;;;;12.26;56.32;100938.22;5005893;28;20030;-69
2021/05/11 02:26:03;;;;;;;6.82;5.55;;;;;;;12.22;56.41;100941.91;5019414;28;20108;-69
2021/05/11 02:28:28;;;;;;;7.32;5.30;;;;;;;12.26;56.20;100941.69;5004856;28;20068;-69
2021/05/11 02:30:55;;;;;;;7.68;5.70;;;;;;;12.28;56.28;100941.63;5006792;28;20046;-69
2021/05/11 02:33:21;;;;;;;9.02;5.88;;;;;;;12.32;56.32;100948.44;5004264;28;20065;-69
2021/05/11 02:35:47;;;;;;;7.07;5.15;;;;;;;12.25;56.51;100952.28;5004711;28;20053;-69
2021/05/11 02:38:13;;;;;;;10.40;6.30;;;;;;;12.30;56.16;100945.03;5005436;28;20442;-69
2021/05/11 02:40:38;;;;;;;10.80;5.80;;;;;;;12.33;56.48;100941.41;4987628;28;20476;-69
2021/05/11 02:43:08;;;;;;;9.25;5.88;;;;;;;12.33;56.34;100949.28;5003794;28;20030;-69
2021/05/11 02:45:35;;;;;;;10.23;6.63;;;;;;;12.32;56.46;100958.09;5004667;28;20116;-69
2021/05/11 02:48:01;;;;;;;11.70;6.65;;;;;;;12.31;56.22;100956.38;5004366;28;20034;-69
2021/05/11 02:50:31;;;;;;;10.75;6.55;;;;;;;12.28;56.12;100963.44;5005473;28;20049;-69
2021/05/11 02:52:56;;;;;;;8.20;6.18;;;;;;;12.28;56.31;100968.69;5004681;28;20034;-69
2021/05/11 02:55:23;;;;;;;11.35;6.22;;;;;;;12.23;56.62;100975.91;5004765;28;20061;-69
2021/05/11 02:57:49;;;;;;;9.13;7.20;;;;;;;12.35;56.66;100966.63;5004406;28;20030;-69
2021/05/11 03:00:17;;;;;;;8.68;5.82;;;;;;;12.46;56.16;100977.47;5006361;28;20052;-69
2021/05/11 03:02:43;;;;;;;14.02;7.00;;;;;;;12.46;56.31;100966.16;5003552;28;20061;-69
2021/05/11 03:05:08;;;;;;;8.88;6.07;;;;;;;12.40;56.41;100971.66;4986732;28;20065;-69
2021/05/11 03:07:34;;;;;;;12.45;6.85;;;;;;;12.36;56.50;100970.13;5004182;28;20488;-69
2021/05/11 03:10:01;;;;;;;6.72;5.53;;;;;;;12.33;56.42;100970.25;5004487;28;20468;-69
2021/05/11 03:12:26;;;;;;;9.52;7.93;;;;;;;12.28;56.58;100980.94;5005523;28;20026;-69
2021/05/11 03:14:52;;;;;;;8.65;6.20;;;;;;;12.22;56.66;100975.97;5010361;28;20377;-69
2021/05/11 03:17:17;;;;;;;10.90;7.07;;;;;;;12.24;56.55;100982.00;5026941;28;20096;-69
2021/05/11 03:19:43;;;;;;;11.15;6.80;;;;;;;12.22;57.08;100983.84;5009187;28;20045;-69
2021/05/11 03:22:08;;;;;;;9.05;6.25;;;;;;;12.22;57.13;100982.09;5008212;28;20041;-69
2021/05/11 03:24:39;;;;;;;14.60;6.50;;;;;;;12.27;57.34;100993.19;5003073;28;20159;-69
2021/05/11 03:27:05;;;;;;;10.43;6.13;;;;;;;12.28;56.67;100994.91;5004002;28;20177;-69
2021/05/11 03:29:31;;;;;;;7.90;5.28;;;;;;;12.41;56.46;100986.47;5019334;28;20037;-69
2021/05/11 03:31:56;;;;;;;8.07;5.82;;;;;;;12.43;56.66;100989.88;5003908;28;20029;-69
2021/05/11 03:34:22;;;;;;;6.78;6.07;;;;;;;12.44;56.74;100989.78;4990619;28;20037;-69
2021/05/11 03:36:47;;;;;;;10.02;6.13;;;;;;;12.43;56.87;100982.03;5007900;28;20036;-69
2021/05/11 03:39:13;;;;;;;7.53;5.60;;;;;;;12.40;56.81;100987.38;5023208;28;20049;-69
2021/05/11 03:41:41;;;;;;;6.70;5.60;;;;;;;12.35;56.52;100982.34;5007762;28;20026;-69
2021/05/11 03:44:22;;;;;;;8.27;5.03;;;;;;;12.32;57.02;100984.28;5008746;28;20053;-69
2021/05/11 03:46:48;;;;;;;6.00;4.75;;;;;;;12.21;56.95;100990.00;5008822;28;20080;-69
2021/05/11 03:49:13;;;;;;;6.30;5.55;;;;;;;12.24;56.72;100987.25;5023445;28;20026;-69
2021/05/11 03:51:39;;;;;;;9.50;4.82;;;;;;;12.22;57.11;100991.69;5008544;28;20182;-69
2021/05/11 03:54:05;;;;;;;7.10;5.68;;;;;;;12.19;57.02;100995.31;5021410;28;20498;-70
2021/05/11 03:56:32;;;;;;;8.05;5.10;;;;;;;12.09;57.26;101004.53;5009104;28;20030;-69
2021/05/11 03:58:58;;;;;;;5.78;5.20;;;;;;;12.17;57.01;100999.78;5008104;28;20509;-69
2021/05/11 04:01:23;;;;;;;6.57;4.78;;;;;;;12.10;57.21;101005.38;5006792;28;20484;-69
2021/05/11 04:03:49;;;;;;;6.65;4.90;;;;;;;12.07;57.01;101003.72;5021145;28;20076;-69
2021/05/11 04:06:14;;;;;;;6.32;4.03;;;;;;;11.99;57.43;101003.22;5006608;28;20104;-69
2021/05/11 04:08:53;;;;;;;6.22;4.75;;;;;;;12.02;57.16;101003.06;5007110;28;20053;-70
2021/05/11 04:16:39;;;;;;;4.55;4.15;;;;;;;11.91;57.75;101005.31;5008001;28;20038;-69
2021/05/11 04:19:05;;;;;;;5.22;4.00;;;;;;;11.96;57.68;101013.84;5007050;28;20168;-69
2021/05/11 04:21:31;;;;;;;8.18;4.28;;;;;;;11.96;57.66;101016.44;5023103;28;20109;-69
2021/05/11 04:23:56;;;;;;;6.75;4.22;;;;;;;11.93;57.23;101012.16;4990398;28;20145;-69
2021/05/11 04:26:23;;;;;;;4.15;2.97;;;;;;;11.63;58.48;101012.53;4990178;28;20080;-69
2021/05/11 04:28:50;;;;;;;5.40;3.30;;;;;;;11.67;58.32;101010.66;5023186;28;20037;-69
2021/05/11 04:31:17;;;;;;;7.38;3.95;;;;;;;11.86;57.62;101008.13;5011074;28;20038;-69
2021/05/11 04:33:44;;;;;;;5.13;3.80;;;;;;;11.90;57.39;101006.22;4990687;28;20168;-69
2021/05/11 04:36:09;;;;;;;7.10;4.15;;;;;;;11.90;57.67;101009.69;5006587;28;20042;-69
2021/05/11 04:38:37;;;;;;;5.32;3.28;;;;;;;11.94;57.37;100994.72;5007483;28;20040;-69
2021/05/11 04:41:02;;;;;;;7.90;4.45;;;;;;;11.91;57.74;100997.44;5023327;28;20030;-69
2021/05/11 04:43:29;;;;;;;7.20;4.63;;;;;;;11.99;57.08;100993.56;5006934;28;20032;-69
2021/05/11 04:48:39;;;;;;;6.30;3.95;;;;;;;11.94;57.57;100994.72;5004521;28;20034;-69
2021/05/11 04:51:05;;;;;;;4.65;4.22;;;;;;;11.90;57.47;100999.22;5006755;28;20051;-69
2021/05/11 04:53:30;;;;;;;7.82;4.63;;;;;;;11.87;57.73;100999.38;5006254;28;20687;-69
2021/05/11 04:55:56;;;;;;;4.82;4.13;;;;;;;12.06;57.03;100989.75;5007160;28;20280;-69
2021/05/11 04:58:21;;;;;;;4.82;3.30;;;;;;;12.13;57.28;100994.72;5006987;28;20061;-69
2021/05/11 05:00:49;;;;;;;7.30;4.80;;;;;;;12.15;57.09;100993.75;5004886;28;20037;-69
2021/05/11 05:03:16;;;;;;;7.95;4.35;;;;;;;12.13;56.96;100995.56;5005659;28;20067;-69
2021/05/11 05:05:43;;;;;;;7.10;3.97;;;;;;;12.15;57.16;100993.75;5004569;28;20041;-69
2021/05/11 05:08:09;;;;;;;8.38;4.45;;;;;;;12.22;57.05;100995.19;5005532;28;20116;-69
2021/05/11 05:10:35;;;;;;;7.65;5.00;;;;;;;12.25;57.08;100994.19;5005002;28;20076;-69
2021/05/11 05:13:00;;;;;;;5.50;3.47;;;;;;;12.34;56.98;100992.94;5007277;28;20025;-69
2021/05/11 05:15:26;;;;;;;6.28;4.25;;;;;;;12.31;56.59;100988.66;5005444;28;20034;-69
2021/05/11 05:17:51;;;;;;;4.20;3.65;;;;;;;12.32;56.90;100997.41;5007242;28;20080;-69
2021/05/11 05:20:17;;;;;;;5.78;4.05;;;;;;;12.36;56.57;100997.19;5021421;28;20356;-70
2021/05/11 05:22:43;;;;;;;8.52;4.45;;;;;;;12.42;56.95;100998.66;5006276;28;20049;-69
2021/05/11 05:25:22;;;;;;;7.35;4.30;;;;;;;12.44;56.64;100996.81;5003761;28;20072;-69
2021/05/11 05:27:59;;;;;;;6.60;4.47;;;;;;;12.46;56.91;100994.97;5020822;28;20125;-69
2021/05/11 05:30:25;;;;;;;6.28;3.95;;;;;;;12.45;56.59;100998.53;4987881;28;20037;-69
2021/05/11 05:32:57;;;;;;;5.63;3.60;;;;;;;12.48;56.70;100996.59;5021890;28;20038;-70
2021/05/11 05:35:22;;;;;;;4.65;4.20;;;;;;;12.47;56.60;100994.06;4987375;28;20041;-69
2021/05/11 05:37:47;;;;;;;4.90;4.32;;;;;;;12.45;56.56;101006.41;5004804;28;20480;-69
2021/05/11 05:40:18;;;;;;;10.18;4.68;;;;;;;12.45;56.57;101006.41;5005409;28;20033;-69
2021/05/11 05:42:44;;;;;;;12.65;5.40;;;;;;;12.47;56.71;101012.44;5022001;28;20026;-69
2021/05/11 05:45:10;;;;;;;10.45;4.78;;;;;;;12.54;56.94;101013.84;5020449;28;20076;-69
2021/05/11 05:47:36;;;;;;;4.93;3.47;;;;;;;12.59;56.65;101018.88;5023354;28;20534;-70
2021/05/11 05:50:06;;;;;;;5.03;4.00;;;;;;;12.54;56.56;101018.25;5006339;28;20034;-69
2021/05/11 05:52:37;;;;;;;8.25;3.65;;;;;;;12.57;56.17;101016.31;5004475;28;20120;-69
2021/05/11 05:55:03;;;;;;;8.23;4.93;;;;;;;12.51;56.55;101021.81;5006073;28;20040;-69
2021/05/11 05:57:29;;;;;;;6.78;4.75;;;;;;;12.54;56.49;101026.94;5003451;28;20566;-69
2021/05/11 05:59:54;;;;;;;5.88;4.40;;;;;;;12.58;56.48;101022.41;5006257;28;20096;-69
2021/05/11 06:02:22;;;;;;;8.35;4.82;;;;;;;12.52;56.31;101023.53;5004719;28;20041;-69
2021/05/11 06:04:48;;;;;;;6.68;4.35;;;;;;;12.55;56.22;101022.53;5004895;28;20040;-69
2021/05/11 06:07:14;;;;;;;9.13;4.25;;;;;;;12.54;56.39;101026.94;5002147;28;20033;-69
2021/05/11 06:09:40;;;;;;;9.10;4.65;;;;;;;12.59;56.34;101029.34;5004780;28;20380;-69
2021/05/11 06:12:10;;;;;;;9.05;5.28;;;;;;;12.60;56.14;101029.28;5005282;28;20036;-69
2021/05/11 06:17:17;;;;;;;6.03;4.35;;;;;;;12.73;56.17;101032.22;5005777;28;20507;-70
2021/05/11 06:19:44;;;;;;;14.13;5.18;;;;;;;12.77;56.09;101039.00;5020924;28;20044;-69
2021/05/11 06:22:10;;;;;;;8.23;5.25;;;;;;;12.82;56.25;101036.19;5005987;28;20109;-69
2021/05/11 06:24:36;;;;;;;12.13;6.13;;;;;;;12.94;55.86;101043.47;5023592;28;20109;-69
2021/05/11 06:27:02;;;;;;;6.30;4.95;;;;;;;12.99;55.61;101033.63;5005467;28;20036;-69
2021/05/11 06:29:30;;;;;;;5.80;4.45;;;;;;;12.96;55.56;101030.28;5006689;28;20128;-70
2021/05/11 06:31:56;;;;;;;7.03;5.00;;;;;;;12.92;55.63;101028.75;5022001;28;20057;-69
2021/05/11 06:34:21;;;;;;;8.40;6.00;;;;;;;12.89;55.81;101038.47;5007090;28;20069;-70
2021/05/11 06:36:47;;;;;;;7.53;5.47;;;;;;;12.93;55.88;101026.03;5007365;28;20032;-70
2021/05/11 06:39:14;;;;;;;6.75;4.90;;;;;;;12.94;56.02;101033.00;5002216;28;20097;-70
2021/05/11 06:41:43;;;;;;;7.15;4.18;;;;;;;12.89;55.63;101021.84;5005556;28;20037;-70
2021/05/11 06:44:14;;;;;;;7.07;4.03;;;;;;;13.02;55.81;101028.22;5007690;28;20040;-70
2021/05/11 06:54:37;;;;;;;8.40;5.10;;;;;;;13.13;55.04;101026.84;5002332;28;20040;-70
2021/05/11 06:57:03;;;;;;;7.10;4.85;;;;;;;13.11;54.98;101012.00;5002621;28;20563;-70
2021/05/11 06:59:29;;;;;;;7.95;5.32;;;;;;;13.15;54.96;101017.97;5004776;28;20149;-70
2021/05/11 07:01:55;;;;;;;7.30;5.10;;;;;;;13.13;54.50;101013.72;5005432;28;20124;-70
2021/05/11 07:04:20;;;;;;;15.48;5.55;;;;;;;13.09;54.83;101013.91;5003504;28;20037;-70
2021/05/11 07:06:46;;;;;;;10.55;6.50;;;;;;;13.21;54.81;101016.84;5002394;28;20120;-70
2021/05/11 07:09:15;;;;;;;8.65;5.95;;;;;;;13.25;54.77;101021.00;5004971;28;20452;-70
2021/05/11 07:14:06;;;;;;;10.43;6.90;;;;;;;13.04;55.05;101023.75;5005748;28;20026;-70
2021/05/11 07:16:32;;;;;;;10.30;6.30;;;;;;;13.06;54.95;101027.13;5004013;28;20041;-70
2021/05/11 07:18:58;;;;;;;9.43;6.28;;;;;;;13.17;54.82;101023.16;5004975;28;20057;-70
2021/05/11 07:21:23;;;;;;;8.45;5.70;;;;;;;12.96;55.19;101019.78;5004264;28;20038;-70
2021/05/11 07:23:49;;;;;;;7.35;5.57;;;;;;;12.82;55.43;101004.69;5003027;28;20040;-70
2021/05/11 07:31:30;;;;;;;6.00;3.90;;;;;;;12.97;54.85;101017.09;5005085;28;20044;-70
2021/05/11 07:33:57;;;;;;;5.10;3.97;;;;;;;12.94;54.64;101017.25;5004258;28;20038;-70
2021/05/11 07:36:23;;;;;;;4.25;3.28;;;;;;;12.79;54.73;101007.47;4986807;28;20061;-70
2021/05/11 07:38:49;;;;;;;3.85;2.85;;;;;;;12.72;55.00;101019.19;4986411;28;20038;-70
2021/05/11 07:41:16;;;;;;;4.22;2.60;;;;;;;12.63;54.98;101017.81;4986792;28;20475;-70
2021/05/11 07:43:44;;;;;;;4.57;1.88;;;;;;;12.70;54.68;101027.97;5002911;28;20461;-70
2021/05/11 08:04:41;;;;;;;2.13;1.92;;;;;;;12.03;55.54;101017.88;5002056;28;20034;-70
2021/05/11 08:17:40;;;;;;;3.58;2.55;;;;;;;12.00;56.23;101031.97;5000411;28;20049;-70
2021/05/11 08:28:02;;;;;;;1.92;1.30;;;;;;;12.65;55.24;101023.84;5019338;28;20382;-70
2021/05/11 08:30:28;;;;;;;2.08;1.10;;;;;;;12.61;55.50;101030.97;5019999;28;20080;-70
2021/05/11 08:32:54;;;;;;;2.05;1.52;;;;;;;12.40;55.24;101034.56;5005979;28;20441;-70
2021/05/11 08:35:22;;;;;;;1.95;1.08;;;;;;;12.51;54.82;101037.56;5022154;28;20069;-70
2021/05/11 08:37:47;;;;;;;2.63;0.60;;;;;;;12.37;54.65;101042.59;5008151;28;20099;-69
2021/05/11 08:40:14;;;;;;;1.40;0.65;;;;;;;12.55;54.80;101035.66;5004005;28;20423;-70
2021/05/11 08:42:39;;;;;;;1.98;0.95;;;;;;;12.67;54.86;101033.31;5001675;28;20097;-69
2021/05/11 08:45:10;;;;;;;6.55;1.13;;;;;;;12.66;54.14;101041.25;5004740;28;20109;-70
2021/05/11 08:47:48;;;;;;;3.38;1.80;;;;;;;12.77;54.31;101048.66;5004164;28;20029;-70
2021/05/11 08:50:34;;;;;;;1.60;0.65;;;;;;;12.51;53.98;101037.56;5021246;28;20080;-70
2021/05/11 09:09:17;;;;;;;3.28;1.27;;;;;;;12.72;54.71;101024.44;5007058;28;20029;-70
2021/05/11 09:15:07;;;;;;;1.90;1.20;;;;;;;12.37;55.60;101024.22;5007104;28;20030;-69
2021/05/11 09:26:23;;;;;;;2.95;2.25;;;;;;;12.87;53.80;101048.16;5006100;28;20041;-69
2021/05/11 09:28:47;;;;;;;4.70;1.88;;;;;;;12.84;54.05;101037.81;4993951;28;20042;-69
2021/05/11 09:31:39;;;;;;;2.75;1.83;;;;;;;13.05;54.09;101037.72;5023445;28;20446;-69
2021/05/11 09:45:33;;;;;;;5.47;1.27;;;;;;;15.18;48.08;101016.06;5022065;28;20327;-69
2021/05/11 09:56:26;;;;;;;2.17;1.33;;;;;;;15.00;49.96;100993.44;5023291;28;20045;-69
2021/05/11 10:49:32;;;;;;;2.00;0.40;;;;;;;15.29;45.75;100985.69;5005520;28;20033;-69
2021/05/11 10:52:04;;;;;;;1.73;0.22;;;;;;;15.23;43.97;100981.59;5005362;28;20483;-69
2021/05/11 10:54:59;;;;;;;1.67;0.35;;;;;;;15.32;45.58;100985.47;5002933;28;20030;-69
2021/05/11 10:57:43;;;;;;;2.03;0.40;;;;;;;15.45;44.92;100986.47;5005209;28;20101;-69
2021/05/11 11:00:23;;;;;;;1.70;0.30;;;;;;;15.10;43.20;100988.47;5004432;28;20038;-69
2021/05/11 11:03:12;;;;;;;1.00;0.32;;;;;;;15.29;43.52;100988.31;5004083;28;20117;-69
2021/05/11 11:05:39;;;;;;;0.80;0.30;;;;;;;15.40;42.70;100974.53;5004925;28;20045;-69
2021/05/11 11:08:25;;;;;;;0.60;0.30;;;;;;;15.56;44.26;100980.56;5005574;28;20121;-69
2021/05/11 11:10:50;;;;;;;1.65;0.43;;;;;;;15.20;43.57;100987.03;5005372;28;20046;-69
2021/05/11 11:13:16;;;;;;;3.83;0.80;;;;;;;15.12;43.50;100986.59;5019464;28;20040;-69
2021/05/11 11:15:42;;;;;;;1.80;0.80;;;;;;;14.72;43.09;100988.84;5004763;28;20137;-69
2021/05/11 11:18:07;;;;;;;1.42;0.50;;;;;;;14.30;45.37;100977.09;5001878;28;20427;-69
2021/05/11 11:20:39;;;;;;;2.00;0.65;;;;;;;14.33;45.19;100962.00;5019857;28;20125;-69
2021/05/11 11:26:26;;;;;;;1.67;0.90;;;;;;;15.04;44.01;100928.31;5004299;28;20033;-69
2021/05/11 11:29:03;;;;;;;2.88;0.57;;;;;;;15.23;43.85;100934.22;4974163;28;20142;-68
2021/05/11 11:31:33;;;;;;;1.52;1.05;;;;;;;15.57;42.39;100946.25;4987041;28;20034;-69
2021/05/11 11:34:24;;;;;;;1.40;0.75;;;;;;;15.59;43.92;100939.09;5002422;28;20108;-69
2021/05/11 11:36:58;;;;;;;1.45;0.60;;;;;;;15.90;42.62;100912.63;5019450;28;20038;-69
2021/05/11 11:39:26;;;;;;;2.83;1.02;;;;;;;16.25;42.30;100899.06;5005401;28;20034;-70
2021/05/11 11:41:55;;;;;;;1.60;0.70;;;;;;;16.26;41.64;100906.88;5004133;28;20034;-69
2021/05/11 11:44:22;;;;;;;1.25;0.40;;;;;;;15.72;41.47;100904.06;4986640;28;20121;-69
2021/05/11 11:46:57;;;;;;;2.67;0.68;;;;;;;15.34;43.07;100909.88;5003672;28;20050;-69
2021/05/11 11:49:25;;;;;;;4.07;0.95;;;;;;;14.89;43.13;100916.88;5004195;28;20026;-68
2021/05/11 11:52:00;;;;;;;1.33;0.47;;;;;;;14.60;43.70;100922.00;5003935;28;20057;-68
2021/05/11 11:57:45;;;;;;;1.17;0.70;;;;;;;14.31;44.42;100927.06;5007392;28;20717;-69
2021/05/11 11:59:54;;;;;;;6.32;0.88;;;;;;;14.21;45.29;100927.66;5008100;28;20049;-68
2021/05/11 12:02:20;;;;;;;2.45;0.90;;;;;;;14.09;45.23;100937.06;5007347;28;20033;-68
2021/05/11 12:04:47;;;;;;;4.22;0.80;;;;;;;14.02;45.50;100941.78;5006579;28;20037;-70
2021/05/11 12:07:15;;;;;;;2.10;0.65;;;;;;;13.83;45.41;100951.56;5007137;28;20026;-69
2021/05/11 12:09:41;;;;;;;2.17;0.70;;;;;;;13.90;45.84;100943.31;5008077;28;20030;-68
2021/05/11 12:12:10;;;;;;;3.97;0.95;;;;;;;13.70;46.49;100941.72;5008793;28;20030;-68
2021/05/11 12:14:39;;;;;;;1.75;0.80;;;;;;;13.81;47.30;100948.19;5006256;28;20294;-69
2021/05/11 12:17:04;;;;;;;2.25;0.95;;;;;;;13.91;46.54;100945.00;5008399;28;20030;-68
2021/05/11 12:19:31;;;;;;;5.82;1.15;;;;;;;13.88;46.39;100965.34;5008778;28;20372;-69
2021/05/11 12:22:05;;;;;;;3.45;0.90;;;;;;;13.41;46.52;100956.31;4991409;28;20026;-68
2021/05/11 12:24:40;;;;;;;5.10;0.90;;;;;;;13.19;46.96;100963.56;5010864;28;20034;-69
2021/05/11 12:27:19;;;;;;;2.33;1.15;;;;;;;13.11;47.52;100963.94;5007906;28;20029;-69
2021/05/11 12:30:02;;;;;;;5.18;1.25;;;;;;;12.89;49.27;100954.50;5009097;28;20038;-69
2021/05/11 12:32:28;;;;;;;9.10;2.42;;;;;;;13.00;48.39;100945.25;5006602;28;20440;-68
2021/05/11 12:35:10;;;;;;;5.95;2.95;;;;;;;13.03;49.04;100934.63;5005751;28;20044;-68
2021/05/11 12:38:11;;;;;;;2.50;1.20;;;;;;;12.91;48.40;100946.53;5007385;28;20096;-69
2021/05/11 12:41:11;;;;;;;4.30;1.83;;;;;;;12.77;48.82;100943.75;4992530;28;20041;-69
2021/05/11 12:43:41;;;;;;;4.18;1.48;;;;;;;13.19;48.75;100951.28;5008196;28;20030;-70
2021/05/11 12:46:19;;;;;;;5.68;1.50;;;;;;;13.23;48.45;100944.13;5023500;28;20440;-70
2021/05/11 12:49:17;;;;;;;4.68;1.05;;;;;;;13.35;48.32;100953.16;5005105;28;21025;-70
2021/05/11 12:51:44;;;;;;;5.15;1.13;;;;;;;13.21;49.14;100944.19;5006585;28;20104;-70
2021/05/11 12:54:52;;;;;;;3.47;0.82;;;;;;;12.96;49.85;100938.44;5007292;28;20026;-70
2021/05/11 12:57:39;;;;;;;4.05;1.05;;;;;;;13.03;49.04;100942.50;5005626;28;20125;-70
2021/05/11 13:00:17;;;;;;;3.08;1.08;;;;;;;13.04;49.66;100945.03;5005902;28;20103;-70
2021/05/11 13:13:56;;;;;;;5.05;0.82;;;;;;;12.59;50.65;100946.28;5006835;28;20033;-69
2021/05/11 13:22:16;;;;;;;2.83;1.30;;;;;;;12.77;49.82;100949.00;5006222;28;20029;-69
2021/05/11 13:35:29;;;;;;;4.25;1.13;;;;;;;12.62;50.11;100971.50;4989844;28;20125;-69
2021/05/11 13:37:55;;;;;;;4.97;1.30;;;;;;;12.74;49.23;100980.63;5006411;28;20543;-69
2021/05/11 13:40:20;;;;;;;3.65;1.42;;;;;;;12.40;50.68;100992.63;5007406;28;20076;-69
2021/05/11 13:42:46;;;;;;;3.40;1.05;;;;;;;12.52;50.68;100991.25;5022480;28;20549;-70
2021/05/11 13:45:12;;;;;;;1.95;0.85;;;;;;;12.38;50.33;100991.84;5007628;28;20480;-69
2021/05/11 13:47:40;;;;;;;5.60;1.60;;;;;;;12.58;49.75;100986.56;5007706;28;20044;-70
2021/05/11 13:50:07;;;;;;;4.72;0.90;;;;;;;12.56;50.30;100983.16;5022071;28;20036;-69
2021/05/11 13:52:33;;;;;;;3.03;2.03;;;;;;;12.33;50.98;100985.97;5021395;28;20041;-69
2021/05/11 13:55:04;;;;;;;2.75;1.10;;;;;;;12.19;51.63;100987.44;5005893;28;20034;-70
2021/05/11 14:02:59;;;;;;;3.03;1.55;;;;;;;12.00;51.95;100991.81;5005860;28;20061;-69
2021/05/11 14:05:24;;;;;;;3.72;1.10;;;;;;;12.28;51.72;100984.41;5005869;28;20531;-69
2021/05/11 14:07:50;;;;;;;6.75;1.92;;;;;;;12.04;52.48;100975.03;4989170;28;20383;-69
2021/05/11 14:10:17;;;;;;;3.42;1.60;;;;;;;11.80;52.57;100969.97;5005170;28;20065;-69
2021/05/11 14:12:43;;;;;;;3.80;1.48;;;;;;;11.72;53.19;100958.94;5005187;28;20044;-69
2021/05/11 14:15:09;;;;;;;5.18;2.40;;;;;;;11.98;52.26;100949.13;5020701;28;20632;-69
2021/05/11 14:17:35;;;;;;;3.75;1.67;;;;;;;12.13;52.22;100942.34;5004702;28;20033;-69
2021/05/11 14:20:00;;;;;;;4.70;2.53;;;;;;;12.18;52.11;100940.34;5003620;28;20034;-69
2021/05/11 14:22:26;;;;;;;10.65;3.08;;;;;;;12.04;53.26;100944.47;5006812;28;20107;-69
2021/05/11 14:24:52;;;;;;;2.72;1.75;;;;;;;12.40;52.23;100961.19;5005674;28;20033;-69
2021/05/11 14:27:18;;;;;;;7.05;2.65;;;;;;;12.55;51.90;100970.94;5003627;28;20080;-69
2021/05/11 14:29:46;;;;;;;8.52;2.80;;;;;;;12.51;51.32;100969.38;5005230;28;20069;-69
2021/05/11 14:32:12;;;;;;;5.80;2.72;;;;;;;11.82;53.43;100968.16;5004160;28;20033;-69
2021/05/11 14:34:38;;;;;;;6.07;2.25;;;;;;;12.03;52.41;100961.09;5003049;28;20392;-69
2021/05/11 14:37:04;;;;;;;8.05;2.28;;;;;;;12.34;51.85;100958.88;5004038;28;20408;-70
2021/05/11 14:39:29;;;;;;;4.75;1.55;;;;;;;12.37;51.03;100961.34;5005323;28;20856;-69
2021/05/11 14:41:56;;;;;;;6.00;1.77;;;;;;;11.72;53.39;100961.56;5004326;28;20112;-70
2021/05/11 14:44:23;;;;;;;6.20;2.08;;;;;;;11.81;52.42;100960.34;5002227;28;20105;-70
2021/05/11 14:46:50;;;;;;;9.75;2.22;;;;;;;11.76;52.77;100950.03;5002049;28;20117;-69
2021/05/11 14:49:16;;;;;;;2.90;2.60;;;;;;;12.49;51.31;100951.13;5017224;28;20037;-70
2021/05/11 14:51:41;;;;;;;7.53;2.75;;;;;;;12.54;51.39;100961.41;5002538;28;20036;-70
2021/05/11 14:54:07;;;;;;;4.00;1.58;;;;;;;12.57;51.08;100956.00;5001122;28;20064;-70
2021/05/11 14:56:38;;;;;;;6.40;2.22;;;;;;;12.22;51.97;100949.78;4999086;28;20104;-69
2021/05/11 14:59:03;;;;;;;3.63;2.00;;;;;;;12.40;52.00;100950.69;5001511;28;20095;-69
2021/05/11 15:01:29;;;;;;;4.90;1.63;;;;;;;12.17;52.14;100944.75;4999797;28;20042;-69
2021/05/11 15:03:54;;;;;;;4.15;1.70;;;;;;;11.96;51.91;100951.81;5019026;28;20037;-70
2021/05/11 15:06:20;;;;;;;3.22;1.25;;;;;;;12.37;51.90;100956.09;4999434;28;20037;-70
2021/05/11 15:08:45;;;;;;;4.78;1.25;;;;;;;11.99;51.02;100950.81;5002955;28;20026;-69
2021/05/11 15:11:11;;;;;;;6.28;1.10;;;;;;;11.73;52.37;100947.56;5000973;28;20036;-70
2021/05/11 15:13:38;;;;;;;3.15;0.85;;;;;;;12.00;51.48;100937.66;5003215;28;20249;-70
2021/05/11 15:16:07;;;;;;;2.92;1.77;;;;;;;11.97;51.33;100926.47;5004321;28;20117;-69
2021/05/11 15:18:32;;;;;;;2.70;1.23;;;;;;;11.60;52.05;100934.16;5001986;28;20029;-69
2021/05/11 15:20:58;;;;;;;1.90;0.90;;;;;;;11.59;52.90;100931.59;5000169;28;20186;-70
2021/05/11 15:23:23;;;;;;;3.20;2.08;;;;;;;11.50;52.55;100922.38;5000850;28;20185;-70
2021/05/11 15:25:49;;;;;;;4.28;1.13;;;;;;;11.99;51.02;100938.56;5016847;28;20041;-70
2021/05/11 15:28:14;;;;;;;6.10;1.25;;;;;;;12.24;50.96;100943.53;5005260;28;20042;-69
2021/05/11 15:30:40;;;;;;;1.90;0.98;;;;;;;12.04;51.27;100944.47;5005515;28;20060;-70
2021/05/11 15:33:08;;;;;;;2.95;1.48;;;;;;;12.26;50.82;100948.72;5021560;28;20042;-69
2021/05/11 15:35:35;;;;;;;5.93;1.48;;;;;;;12.25;50.85;100953.13;5009481;28;20038;-70
2021/05/11 15:38:06;;;;;;;3.10;1.48;;;;;;;12.25;51.40;100952.28;5004504;28;20018;-69
2021/05/11 15:40:35;;;;;;;4.93;1.42;;;;;;;12.14;51.27;100939.66;5003708;28;20022;-70
2021/05/11 15:43:03;;;;;;;5.82;1.45;;;;;;;11.63;51.26;100935.78;5006586;28;20036;-70
2021/05/11 15:45:29;;;;;;;4.57;1.70;;;;;;;11.58;51.51;100941.22;5002934;28;20033;-69